»·PEaware :: N9633L KPSP-KONT

N9633L :: KPSP-KONT

FLIGHT INFORMATION

Flight Status: Arrived
Operator: Privately registered:
United States
More flights under this callsign
Pilot: John P. (31881)
Aircraft: BEECH AIRCRAFT SUPER KING AIR 350
(B350)
More flights by this aircraft type
Origin: KPSP Palm Springs Intl
United States
Destination: KONT Ontario Intl
United States
More flights between these airports :: More routes between these airports
Route: CATH1 PSP V388 PDZ
File this flight plan on PilotEdge
Remarks:
Altitude:
(Current/Filed)
12,000ft
Speed:
(Current/Filed)
293kts
Departed: 05-Jan-21 06:41 PM
Arrived: 05-Jan-21 07:04 PM
Distance/Time
Traveled:
6706nm/0:23
Distance/Time
To Go:
Arrived

Flight Plot

Page will automatically refresh every two minutes.


Map Options




Map Legend


Flown Route
Filed Route
Departure Airport
Arrival Airport
Navaid (VOR, NDB)
Fix

Horizontal Profiles

Position Reports

Time Latitude Longitude Heading Altitude Ground
Speed
05-Jan-21 18:12 0.000408 0.013975 0 5ft 0kts
05-Jan-21 18:13 0.000408 0.013975 0 5ft 0kts
05-Jan-21 18:14 0.000408 0.013975 0 5ft 0kts
05-Jan-21 18:15 0.000408 0.013975 0 5ft 0kts
05-Jan-21 18:16 0.000408 0.013975 0 5ft 0kts
05-Jan-21 18:17 0.000408 0.013975 0 5ft 0kts
05-Jan-21 18:18 33.827744 -116.508833 143 428ft 0kts
05-Jan-21 18:19 33.827743 -116.508832 143 438ft 2kts
05-Jan-21 18:20 33.827743 -116.508832 143 438ft 0kts
05-Jan-21 18:21 33.827743 -116.508832 143 438ft 0kts
05-Jan-21 18:22 33.827743 -116.508832 143 438ft 0kts
05-Jan-21 18:23 33.827743 -116.508832 143 438ft 0kts
05-Jan-21 18:24 33.827743 -116.508832 143 438ft 0kts
05-Jan-21 18:25 33.827743 -116.508832 143 438ft 0kts
05-Jan-21 18:26 33.827743 -116.508832 143 438ft 0kts
05-Jan-21 18:27 33.827743 -116.508832 143 438ft 0kts
05-Jan-21 18:28 33.827743 -116.508832 143 438ft 0kts
05-Jan-21 18:29 33.827743 -116.508832 143 438ft 0kts
05-Jan-21 18:30 33.827743 -116.508832 143 438ft 0kts
05-Jan-21 18:31 33.827743 -116.508832 143 438ft 0kts
05-Jan-21 18:32 33.827743 -116.508832 143 438ft 0kts
05-Jan-21 18:33 33.827743 -116.508832 143 438ft 0kts
05-Jan-21 18:34 33.827743 -116.508832 143 438ft 0kts
05-Jan-21 18:35 33.827743 -116.508832 143 438ft 0kts
05-Jan-21 18:36 33.827743 -116.508832 143 438ft 0kts
05-Jan-21 18:37 33.824098 -116.504705 143 421ft 38kts
05-Jan-21 18:38 33.818500 -116.499063 84 403ft 0kts
05-Jan-21 18:39 33.818543 -116.498789 68 403ft 12kts
05-Jan-21 18:40 33.835577 -116.512939 325 604ft 139kts
05-Jan-21 18:41 33.865537 -116.540628 321 2398ft 138kts
05-Jan-21 18:42 33.898337 -116.560418 33 4088ft 145kts
05-Jan-21 18:43 33.893486 -116.513960 112 5686ft 154kts
05-Jan-21 18:44 33.879298 -116.464964 106 7237ft 158kts
05-Jan-21 18:45 33.851826 -116.467249 286 8824ft 151kts
05-Jan-21 18:46 33.881608 -116.502429 309 10610ft 153kts
05-Jan-21 18:47 33.901161 -116.551199 287 11888ft 191kts
05-Jan-21 18:48 33.918959 -116.622475 288 11987ft 248kts
05-Jan-21 18:49 33.939835 -116.705104 286 11998ft 268kts
05-Jan-21 18:50 33.947240 -116.793928 270 11998ft 276kts
05-Jan-21 18:51 33.944609 -116.886934 271 12003ft 279kts
05-Jan-21 18:52 33.943820 -116.979235 271 11661ft 271kts
05-Jan-21 18:53 33.943556 -117.069050 271 10160ft 260kts
05-Jan-21 18:54 33.943543 -117.154778 271 8658ft 254kts
05-Jan-21 18:55 33.943678 -117.229436 274 7209ft 205kts
05-Jan-21 18:56 33.982492 -117.270667 331 5707ft 197kts
05-Jan-21 18:57 34.031429 -117.302080 330 4477ft 208kts
05-Jan-21 18:58 34.052578 -117.360504 279 4300ft 186kts
05-Jan-21 18:59 34.054876 -117.421390 270 3545ft 193kts
05-Jan-21 19:00 34.054979 -117.483962 268 2535ft 171kts
05-Jan-21 19:01 34.054972 -117.535503 267 1723ft 133kts
05-Jan-21 19:02 34.054919 -117.576717 268 1032ft 113kts
05-Jan-21 19:03 34.054079 -117.594495 243 935ft 0kts
05-Jan-21 19:04 34.053918 -117.595058 258 936ft 9kts
05-Jan-21 19:05 34.053833 -117.605569 269 937ft 48kts
05-Jan-21 19:06 34.052558 -117.613280 239 943ft 0kts
05-Jan-21 19:07 0.000408 0.013975 0 5ft 0kts
05-Jan-21 19:08 0.000408 0.013975 0 5ft 0kts
05-Jan-21 19:09 0.000408 0.013975 0 5ft 0kts
05-Jan-21 19:10 0.000408 0.013975 0 5ft 0kts
05-Jan-21 19:11 0.000408 0.013975 0 5ft 0kts
05-Jan-21 19:12 0.000408 0.013975 0 5ft 0kts
05-Jan-21 19:13 0.000408 0.013975 0 5ft 0kts
05-Jan-21 19:14 0.000408 0.013975 0 5ft 0kts
05-Jan-21 19:15 0.000408 0.013975 0 5ft 0kts
05-Jan-21 19:16 0.000408 0.013975 0 5ft 0kts
05-Jan-21 19:17 0.000408 0.013975 0 5ft 0kts

Navigation Log

Ident Type
Flight plan parsing failed, navigation log unavailable